Time;durP1;ratioP1;P1;durP2;ratioP2;P2;SDS_P1;SDS_P2;PMS_P1;PMS_P2;Temp;Humidity;BMP_temperature;BMP_pressure;BME280_temperature;BME280_humidity;BME280_pressure;Samples;Min_cycle;Max_cycle;Signal;HPM_P1;HPM_P2
2023/03/13 00:01:10;;;;;;;8.40;6.38;;;21.30;31.80;;;;;;4973906;28;20133;-61
2023/03/13 00:03:37;;;;;;;8.70;6.30;;;21.30;31.80;;;;;;4972388;28;20082;-59
2023/03/13 00:06:04;;;;;;;8.32;6.05;;;21.30;31.90;;;;;;4973295;28;20047;-60
2023/03/13 00:08:31;;;;;;;7.68;6.05;;;21.30;31.80;;;;;;4974263;28;20096;-60
2023/03/13 00:11:05;;;;;;;8.85;6.57;;;21.30;31.90;;;;;;4977489;28;20047;-60
2023/03/13 00:13:33;;;;;;;9.48;6.47;;;21.30;31.90;;;;;;4975996;28;20487;-60
2023/03/13 00:16:04;;;;;;;10.38;6.85;;;21.30;31.90;;;;;;4977508;28;20503;-59
2023/03/13 00:18:32;;;;;;;10.57;6.60;;;21.30;31.90;;;;;;4977446;28;20047;-60
2023/03/13 00:21:01;;;;;;;7.53;5.75;;;21.30;31.90;;;;;;4976823;28;20073;-59
2023/03/13 00:23:28;;;;;;;8.30;6.07;;;21.30;31.90;;;;;;4977384;28;20133;-60
2023/03/13 00:26:05;;;;;;;7.90;5.75;;;21.30;31.90;;;;;;4977406;28;20047;-59
2023/03/13 00:28:33;;;;;;;7.43;5.50;;;21.30;31.90;;;;;;4976977;28;20054;-60
2023/03/13 00:31:10;;;;;;;8.00;6.55;;;21.30;31.90;;;;;;4975779;28;20058;-59
2023/03/13 00:33:40;;;;;;;7.97;6.10;;;21.30;31.90;;;;;;4977381;28;20053;-60
2023/03/13 00:36:12;;;;;;;7.63;5.65;;;21.30;31.90;;;;;;4977353;28;20051;-62
2023/03/13 00:38:39;;;;;;;7.63;5.70;;;21.30;32.00;;;;;;4976769;28;20504;-60
2023/03/13 00:41:12;;;;;;;8.40;6.15;;;21.30;32.00;;;;;;4977257;28;20066;-60
2023/03/13 00:43:41;;;;;;;7.28;5.20;;;21.30;32.00;;;;;;4977153;28;20200;-60
2023/03/13 00:46:09;;;;;;;6.30;5.10;;;21.20;31.90;;;;;;4976903;28;20571;-60
2023/03/13 00:48:36;;;;;;;6.95;5.28;;;21.30;32.00;;;;;;4976775;28;20567;-59
2023/03/13 00:51:05;;;;;;;6.40;4.90;;;21.20;31.90;;;;;;4976169;28;20153;-60
2023/03/13 00:53:32;;;;;;;6.30;5.60;;;21.20;31.90;;;;;;4977103;28;20047;-60
2023/03/13 00:56:07;;;;;;;8.55;5.82;;;21.20;31.90;;;;;;4976323;28;20051;-59
2023/03/13 00:58:37;;;;;;;8.90;5.13;;;21.20;31.90;;;;;;4978401;28;20085;-60
2023/03/13 01:01:17;;;;;;;7.43;5.40;;;21.20;31.90;;;;;;4995902;28;20827;-59
2023/03/13 01:03:47;;;;;;;6.30;4.85;;;21.20;32.00;;;;;;4994648;28;20466;-59
2023/03/13 01:06:18;;;;;;;6.32;5.00;;;21.20;31.90;;;;;;4976223;28;20553;-60
2023/03/13 01:08:45;;;;;;;;;;;21.20;32.00;;;;;;4976623;28;20054;-59
2023/03/13 01:11:16;;;;;;;7.45;5.40;;;21.30;32.00;;;;;;4975591;28;19922;-59
2023/03/13 01:13:43;;;;;;;6.55;4.85;;;21.20;32.00;;;;;;4993106;28;20403;-59
2023/03/13 01:16:16;;;;;;;6.25;4.65;;;21.30;32.10;;;;;;4995843;28;20495;-60
2023/03/13 01:18:46;;;;;;;6.45;5.25;;;21.30;32.00;;;;;;4995425;28;20054;-60
2023/03/13 01:21:15;;;;;;;6.97;5.30;;;21.30;32.10;;;;;;4977600;28;20046;-60
2023/03/13 01:23:43;;;;;;;6.40;5.07;;;21.30;32.00;;;;;;4996136;28;20058;-59
2023/03/13 01:26:11;;;;;;;6.55;4.65;;;21.30;32.00;;;;;;4995222;28;20128;-59
2023/03/13 01:28:38;;;;;;;6.72;5.28;;;21.30;32.60;;;;;;4995944;28;20096;-60
2023/03/13 01:31:21;;;;;;;6.70;5.15;;;21.30;32.00;;;;;;4995308;28;20050;-60
2023/03/13 01:33:56;;;;;;;5.68;4.28;;;21.30;32.00;;;;;;4977968;28;20058;-60
2023/03/13 01:36:24;;;;;;;5.93;4.60;;;21.30;32.00;;;;;;4994867;28;20065;-60
2023/03/13 01:38:53;;;;;;;5.80;4.57;;;21.30;32.00;;;;;;4994566;28;20133;-60
2023/03/13 01:41:22;;;;;;;5.73;4.73;;;21.30;32.00;;;;;;4995313;28;20468;-60
2023/03/13 01:43:50;;;;;;;5.47;4.20;;;21.30;32.00;;;;;;4995358;28;20141;-60
2023/03/13 01:46:20;;;;;;;6.28;4.60;;;21.30;32.00;;;;;;4994592;28;20140;-59
2023/03/13 01:49:11;;;;;;;6.82;4.55;;;21.30;32.00;;;;;;4994905;28;20510;-59
2023/03/13 01:51:44;;;;;;;;;;;21.30;32.00;;;;;;4995198;28;20471;-59
2023/03/13 01:54:25;;;;;;;6.00;4.03;;;21.30;32.00;;;;;;4995335;28;20271;-59
2023/03/13 01:57:02;;;;;;;6.57;4.68;;;21.30;32.00;;;;;;4995411;28;20398;-60
2023/03/13 01:59:48;;;;;;;5.32;4.10;;;21.20;32.00;;;;;;4994661;28;20137;-60
2023/03/13 02:02:16;;;;;;;5.85;4.43;;;21.20;32.00;;;;;;4995453;28;20050;-59
2023/03/13 02:04:47;;;;;;;4.97;4.38;;;21.20;32.00;;;;;;4994380;28;20050;-59
2023/03/13 02:07:18;;;;;;;5.05;3.92;;;21.20;32.00;;;;;;4994921;28;20137;-60
2023/03/13 02:09:50;;;;;;;4.93;3.78;;;21.20;32.00;;;;;;4994515;28;20056;-60
2023/03/13 02:12:32;;;;;;;5.40;4.05;;;21.20;31.90;;;;;;4994899;28;20566;-59
2023/03/13 02:15:04;;;;;;;4.97;4.22;;;21.20;32.00;;;;;;4978334;28;20554;-59
2023/03/13 02:17:34;;;;;;;5.82;4.30;;;21.20;32.00;;;;;;4995053;28;20064;-60
2023/03/13 02:20:01;;;;;;;;;;;21.20;32.00;;;;;;4994754;28;20046;-60
2023/03/13 02:23:03;;;;;;;6.20;4.15;;;21.20;32.00;;;;;;4994238;28;19921;-59
2023/03/13 02:25:46;;;;;;;4.93;3.90;;;21.20;32.00;;;;;;4994236;28;20498;-60
2023/03/13 02:28:19;;;;;;;4.65;3.45;;;21.20;32.00;;;;;;4994157;28;20243;-59
2023/03/13 02:30:49;;;;;;;4.70;3.40;;;21.20;32.00;;;;;;4993459;28;20050;-60
2023/03/13 02:33:18;;;;;;;4.60;3.90;;;21.20;32.00;;;;;;4993592;28;20467;-59
2023/03/13 02:35:47;;;;;;;5.22;3.95;;;21.20;32.00;;;;;;4993918;28;20298;-60
2023/03/13 02:38:22;;;;;;;6.82;4.03;;;21.20;32.50;;;;;;4994117;28;20469;-59
2023/03/13 02:40:52;;;;;;;3.90;3.47;;;21.20;32.00;;;;;;4994240;28;20046;-59
2023/03/13 02:43:29;;;;;;;4.40;3.75;;;21.20;32.00;;;;;;4994236;28;20050;-59
2023/03/13 02:46:16;;;;;;;4.82;3.40;;;21.20;32.00;;;;;;4994090;28;20129;-60
2023/03/13 02:48:50;;;;;;;4.65;3.78;;;21.20;32.00;;;;;;4993837;28;20143;-59
2023/03/13 02:51:37;;;;;;;4.53;3.38;;;21.20;32.00;;;;;;4994094;28;20419;-60
2023/03/13 02:54:16;;;;;;;4.80;3.35;;;21.20;32.00;;;;;;4993948;28;20054;-60
2023/03/13 02:56:47;;;;;;;4.53;3.15;;;21.20;32.00;;;;;;4993442;28;20076;-60
2023/03/13 02:59:15;;;;;;;4.70;3.47;;;21.20;32.00;;;;;;4993669;28;20046;-59
2023/03/13 03:01:42;;;;;;;4.03;3.17;;;21.20;32.00;;;;;;4993444;28;20137;-60
2023/03/13 03:04:10;;;;;;;4.10;3.03;;;21.20;32.00;;;;;;4993070;28;20054;-59
2023/03/13 03:06:37;;;;;;;4.13;3.28;;;21.20;32.00;;;;;;4993898;28;20050;-60
2023/03/13 03:09:04;;;;;;;4.38;3.70;;;21.20;32.00;;;;;;4993597;28;20157;-59
2023/03/13 03:11:31;;;;;;;3.30;2.92;;;21.20;32.00;;;;;;4993576;28;20140;-60
2023/03/13 03:13:59;;;;;;;4.18;3.13;;;21.20;32.00;;;;;;4977135;28;20129;-59
2023/03/13 03:16:26;;;;;;;3.28;2.97;;;21.20;32.10;;;;;;4993861;28;20046;-59
2023/03/13 03:18:53;;;;;;;3.28;2.97;;;21.20;32.00;;;;;;4993384;28;20050;-60
2023/03/13 03:21:22;;;;;;;4.80;3.20;;;21.20;32.00;;;;;;4994047;28;20398;-59
2023/03/13 03:23:50;;;;;;;4.13;3.10;;;21.20;32.00;;;;;;4993968;28;20440;-60
2023/03/13 03:26:18;;;;;;;4.10;3.45;;;21.20;32.10;;;;;;4993960;28;20053;-59
2023/03/13 03:28:46;;;;;;;3.75;2.67;;;21.20;32.10;;;;;;4993527;28;20054;-59
2023/03/13 03:31:14;;;;;;;2.60;2.40;;;21.20;32.10;;;;;;4993738;28;20515;-59
2023/03/13 03:33:42;;;;;;;3.90;3.15;;;21.20;32.10;;;;;;4993116;28;20411;-60
2023/03/13 03:36:16;;;;;;;3.60;2.95;;;21.20;32.60;;;;;;4993492;28;20089;-59
2023/03/13 03:38:43;;;;;;;3.38;2.85;;;21.20;32.10;;;;;;4993841;28;20562;-60
2023/03/13 03:41:12;;;;;;;3.65;2.53;;;21.20;32.10;;;;;;4993650;28;20042;-59
2023/03/13 03:43:40;;;;;;;3.90;2.88;;;21.20;32.10;;;;;;4977679;28;20403;-60
2023/03/13 03:46:08;;;;;;;3.58;2.72;;;21.20;32.00;;;;;;4997403;28;20054;-60
2023/03/13 03:48:35;;;;;;;3.38;3.05;;;21.20;32.00;;;;;;4997157;28;20042;-60
2023/03/13 03:51:03;;;;;;;3.67;2.72;;;21.20;32.00;;;;;;4997393;28;20065;-60
2023/03/13 03:53:31;;;;;;;3.05;2.60;;;21.20;32.00;;;;;;4997842;28;20402;-60
2023/03/13 03:56:00;;;;;;;2.40;2.13;;;21.20;32.00;;;;;;4997199;28;20054;-60
2023/03/13 03:58:27;;;;;;;3.25;2.47;;;21.20;32.00;;;;;;4997330;28;20054;-59
2023/03/13 04:00:56;;;;;;;3.28;2.70;;;21.20;32.00;;;;;;4996641;28;20058;-60
2023/03/13 04:03:23;;;;;;;3.03;2.47;;;21.20;32.00;;;;;;4996769;28;20082;-60
2023/03/13 04:05:51;;;;;;;3.33;2.63;;;21.20;32.10;;;;;;4996791;28;20050;-60
2023/03/13 04:08:18;;;;;;;2.88;2.40;;;21.20;32.10;;;;;;4996634;28;20129;-59
2023/03/13 04:10:45;;;;;;;3.38;2.53;;;21.20;32.10;;;;;;4996536;28;20046;-60
2023/03/13 04:13:13;;;;;;;3.33;2.70;;;21.20;32.10;;;;;;4996713;28;20077;-60
2023/03/13 04:15:41;;;;;;;2.45;2.20;;;21.20;32.10;;;;;;4996494;28;20100;-60
2023/03/13 04:18:08;;;;;;;2.58;2.38;;;21.10;32.00;;;;;;4996559;28;20051;-60
2023/03/13 04:20:35;;;;;;;2.33;2.13;;;21.10;32.10;;;;;;4996824;28;20105;-59
2023/03/13 04:23:02;;;;;;;2.55;2.30;;;21.10;32.00;;;;;;4996389;28;20058;-59
2023/03/13 04:25:30;;;;;;;2.45;2.03;;;21.10;32.00;;;;;;4995932;28;20570;-59
2023/03/13 04:27:57;;;;;;;2.33;1.83;;;21.20;32.10;;;;;;4996457;28;20054;-59
2023/03/13 04:30:25;;;;;;;2.00;1.90;;;21.10;32.60;;;;;;4996492;28;20490;-60
2023/03/13 04:32:52;;;;;;;3.05;2.53;;;21.10;32.00;;;;;;4996340;28;20090;-60
2023/03/13 04:35:19;;;;;;;2.88;2.33;;;21.10;32.10;;;;;;4996249;28;20410;-60
2023/03/13 04:37:46;;;;;;;2.60;2.00;;;21.10;32.00;;;;;;4996935;28;20054;-60
2023/03/13 04:40:14;;;;;;;1.80;1.67;;;21.10;32.10;;;;;;4995941;28;20533;-60
2023/03/13 04:42:41;;;;;;;2.30;2.10;;;21.10;32.10;;;;;;4978937;28;20407;-60
2023/03/13 04:45:12;;;;;;;2.75;1.90;;;21.10;32.10;;;;;;4995668;28;20050;-60
2023/03/13 04:47:39;;;;;;;2.00;1.75;;;21.10;32.10;;;;;;4979014;28;20055;-59
2023/03/13 04:50:07;;;;;;;2.22;2.03;;;21.10;32.10;;;;;;4995855;28;20047;-59
2023/03/13 04:52:34;;;;;;;2.15;1.85;;;21.10;32.10;;;;;;4978771;28;20054;-60
2023/03/13 04:55:02;;;;;;;2.38;2.10;;;21.10;32.10;;;;;;4995489;28;20050;-60
2023/03/13 04:57:29;;;;;;;2.70;2.25;;;21.10;32.10;;;;;;4995914;28;20069;-60
2023/03/13 04:59:56;;;;;;;2.03;1.80;;;21.10;32.10;;;;;;4978124;28;20072;-60
2023/03/13 05:02:23;;;;;;;2.88;2.40;;;21.10;32.10;;;;;;4995240;28;20054;-60
2023/03/13 05:04:50;;;;;;;1.90;1.60;;;21.10;32.10;;;;;;4995700;28;20054;-60
2023/03/13 05:07:18;;;;;;;2.03;1.60;;;21.10;32.10;;;;;;4996172;28;20047;-59
2023/03/13 05:09:45;;;;;;;1.95;1.30;;;21.10;32.10;;;;;;4995418;28;20050;-60
2023/03/13 05:12:12;;;;;;;2.53;1.98;;;21.10;32.10;;;;;;4995474;28;20053;-60
2023/03/13 05:14:39;;;;;;;3.22;2.25;;;21.10;32.10;;;;;;4959216;28;20039;-59
2023/03/13 05:17:06;;;;;;;2.45;2.25;;;21.10;32.10;;;;;;4974688;28;20093;-60
2023/03/13 05:19:33;;;;;;;2.33;2.00;;;21.10;32.10;;;;;;4975679;28;20429;-60
2023/03/13 05:22:01;;;;;;;2.88;2.28;;;21.10;32.10;;;;;;4976036;28;20055;-60
2023/03/13 05:24:28;;;;;;;2.10;1.58;;;21.10;32.10;;;;;;4975329;28;20065;-60
2023/03/13 05:26:55;;;;;;;1.40;1.30;;;21.10;32.10;;;;;;4974768;28;20051;-60
2023/03/13 05:29:22;;;;;;;1.42;1.33;;;21.00;32.10;;;;;;4975094;28;20051;-62
2023/03/13 05:31:49;;;;;;;2.13;1.83;;;21.10;32.70;;;;;;4972918;28;20051;-60
2023/03/13 05:34:16;;;;;;;2.72;2.20;;;21.10;32.10;;;;;;4964980;28;20074;-60
2023/03/13 05:36:43;;;;;;;6.63;2.40;;;21.10;32.00;;;;;;4978660;28;20058;-59
2023/03/13 05:39:10;;;;;;;4.78;2.90;;;21.10;31.90;;;;;;4975468;28;20447;-60
2023/03/13 05:41:37;;;;;;;3.80;2.45;;;21.10;32.30;;;;;;4965747;28;20057;-59
2023/03/13 05:44:04;;;;;;;4.72;3.05;;;21.10;31.70;;;;;;4974301;28;20054;-60
2023/03/13 05:46:32;;;;;;;3.33;2.35;;;21.10;31.70;;;;;;4975117;28;20058;-59
2023/03/13 05:48:59;;;;;;;4.95;2.97;;;21.10;31.60;;;;;;4974006;28;20459;-60
2023/03/13 05:51:27;;;;;;;3.47;2.65;;;21.10;31.60;;;;;;4973215;28;20054;-59
2023/03/13 05:53:54;;;;;;;3.08;2.40;;;21.10;31.60;;;;;;4977939;28;20073;-59
2023/03/13 05:56:21;;;;;;;3.10;2.38;;;21.10;31.50;;;;;;4979209;28;20049;-59
2023/03/13 05:58:48;;;;;;;2.95;2.65;;;21.10;31.40;;;;;;4972680;28;20047;-59
2023/03/13 06:01:15;;;;;;;4.03;2.83;;;21.10;31.30;;;;;;4973348;28;20055;-59
2023/03/13 06:03:42;;;;;;;2.65;2.40;;;21.20;31.30;;;;;;4973834;28;20051;-60
2023/03/13 06:06:09;;;;;;;4.55;2.92;;;21.20;31.30;;;;;;4973963;28;20407;-59
2023/03/13 06:08:36;;;;;;;4.45;2.90;;;21.20;31.20;;;;;;4957415;28;20050;-60
2023/03/13 06:11:04;;;;;;;5.07;3.22;;;21.30;31.20;;;;;;4972100;28;20065;-60
2023/03/13 06:13:31;;;;;;;4.80;3.17;;;21.30;31.10;;;;;;4972546;28;20047;-60
2023/03/13 06:15:58;;;;;;;4.60;3.15;;;21.30;31.00;;;;;;4974345;28;20058;-58
2023/03/13 06:18:26;;;;;;;7.05;3.55;;;21.40;30.90;;;;;;4956486;28;20456;-59
2023/03/13 06:20:58;;;;;;;5.25;3.90;;;21.40;30.80;;;;;;4943385;28;20054;-60
2023/03/13 06:23:27;;;;;;;6.43;3.58;;;21.40;30.60;;;;;;4950781;28;20078;-57
2023/03/13 06:25:55;;;;;;;5.38;4.13;;;21.50;30.70;;;;;;4969302;28;20043;-59
2023/03/13 06:28:22;;;;;;;7.15;4.85;;;21.50;30.60;;;;;;4972380;28;20049;-59
2023/03/13 06:30:49;;;;;;;6.63;4.75;;;21.50;30.60;;;;;;4972046;28;20129;-59
2023/03/13 06:33:17;;;;;;;6.95;5.28;;;21.60;30.60;;;;;;4971285;28;20047;-59
2023/03/13 06:35:44;;;;;;;7.72;5.15;;;21.60;30.50;;;;;;4970022;28;20044;-60
2023/03/13 06:38:23;;;;;;;7.85;5.47;;;21.70;30.50;;;;;;4961913;28;20049;-60
2023/03/13 06:40:51;;;;;;;7.88;5.60;;;21.70;30.40;;;;;;4962878;28;20478;-59
2023/03/13 06:43:18;;;;;;;9.75;4.95;;;21.80;30.40;;;;;;4968860;28;20043;-61
2023/03/13 06:45:46;;;;;;;9.30;4.82;;;21.80;30.60;;;;;;4953743;28;20141;-59
2023/03/13 06:48:13;;;;;;;7.70;4.82;;;21.90;30.90;;;;;;4942183;28;20047;-61
2023/03/13 06:50:41;;;;;;;10.70;4.82;;;21.90;31.10;;;;;;4946831;28;20055;-60
2023/03/13 06:53:17;;;;;;;7.97;5.35;;;22.00;31.10;;;;;;4966479;28;20712;-61
2023/03/13 06:55:45;;;;;;;7.13;4.40;;;22.10;31.30;;;;;;4959294;28;20137;-60
2023/03/13 06:58:13;;;;;;;7.00;4.88;;;22.10;31.30;;;;;;4970782;28;20050;-61
2023/03/13 07:01:11;;;;;;;8.35;5.30;;;22.10;31.20;;;;;;4970336;28;20140;-61
2023/03/13 07:03:43;;;;;;;10.73;5.65;;;22.10;31.10;;;;;;4968039;28;20499;-59
2023/03/13 07:06:11;;;;;;;7.85;5.15;;;22.20;31.10;;;;;;4969949;28;20113;-61
2023/03/13 07:08:39;;;;;;;10.48;5.78;;;22.30;31.20;;;;;;4946719;28;20075;-61
2023/03/13 07:11:09;;;;;;;10.27;5.90;;;22.30;31.10;;;;;;4966485;28;20126;-61
2023/03/13 07:13:36;;;;;;;9.60;5.30;;;22.30;31.00;;;;;;4968099;28;21794;-60
2023/03/13 07:16:06;;;;;;;7.18;5.03;;;22.40;31.10;;;;;;4963807;28;20038;-61
2023/03/13 07:18:34;;;;;;;8.38;5.43;;;22.40;30.70;;;;;;4965929;28;20272;-59
2023/03/13 07:21:06;;;;;;;11.82;5.55;;;22.50;30.50;;;;;;4970153;28;20539;-60
2023/03/13 07:23:34;;;;;;;7.82;5.30;;;22.50;30.30;;;;;;4969426;28;20058;-60
2023/03/13 07:26:05;;;;;;;10.90;5.28;;;22.60;30.20;;;;;;4963872;28;20083;-61
2023/03/13 07:28:32;;;;;;;8.63;5.38;;;22.60;30.20;;;;;;4953431;28;20050;-61
2023/03/13 07:31:11;;;;;;;7.30;5.03;;;22.70;30.40;;;;;;4937028;28;20051;-59
2023/03/13 07:33:39;;;;;;;8.13;5.40;;;22.70;30.50;;;;;;4967003;28;20058;-59
2023/03/13 07:36:09;;;;;;;8.07;4.88;;;22.70;30.80;;;;;;4971765;28;20070;-62
2023/03/13 07:38:37;;;;;;;7.32;4.78;;;22.80;30.90;;;;;;4971802;28;20080;-61
2023/03/13 07:41:05;;;;;;;7.55;5.50;;;22.80;30.70;;;;;;4931304;28;20458;-61
2023/03/13 07:43:32;;;;;;;9.95;5.13;;;22.90;30.70;;;;;;4946324;28;20114;-59
2023/03/13 07:46:01;;;;;;;9.75;5.38;;;22.90;30.60;;;;;;4953982;28;20113;-61
2023/03/13 07:48:31;;;;;;;6.25;4.53;;;23.00;30.70;;;;;;4974199;28;20054;-61
2023/03/13 07:50:59;;;;;;;9.10;5.93;;;23.00;30.70;;;;;;4948897;28;20074;-61
2023/03/13 07:53:27;;;;;;;9.73;4.82;;;23.00;30.80;;;;;;4971491;28;20054;-61
2023/03/13 07:56:04;;;;;;;8.65;4.63;;;23.10;30.80;;;;;;4969632;28;20046;-63
2023/03/13 07:58:34;;;;;;;6.75;5.07;;;23.10;30.70;;;;;;4949597;28;20059;-60
2023/03/13 08:01:08;;;;;;;8.65;4.68;;;23.10;30.70;;;;;;4965994;28;20491;-60
2023/03/13 08:03:36;;;;;;;6.38;4.35;;;23.20;30.70;;;;;;4966658;28;20163;-60
2023/03/13 08:06:10;;;;;;;8.23;4.50;;;23.20;30.70;;;;;;4961293;28;20316;-60
2023/03/13 08:08:39;;;;;;;6.50;4.35;;;23.20;30.50;;;;;;4945348;28;20058;-59
2023/03/13 08:11:12;;;;;;;8.38;4.60;;;23.30;30.50;;;;;;4965790;28;20141;-59
2023/03/13 08:13:40;;;;;;;8.85;4.70;;;23.30;30.60;;;;;;4967220;28;20577;-60
2023/03/13 08:16:11;;;;;;;8.40;3.92;;;23.40;30.60;;;;;;4946827;28;20043;-60
2023/03/13 08:18:42;;;;;;;5.60;3.97;;;23.40;30.60;;;;;;4969956;28;20058;-59
2023/03/13 08:21:12;;;;;;;5.75;4.07;;;23.40;30.70;;;;;;4966277;28;20566;-60
2023/03/13 08:23:39;;;;;;;;;;;23.40;30.60;;;;;;4955741;28;20058;-60
2023/03/13 08:26:09;;;;;;;7.18;4.05;;;23.40;30.50;;;;;;4967133;28;19969;-59
2023/03/13 08:28:37;;;;;;;5.85;4.10;;;23.40;30.40;;;;;;4960129;28;20493;-60
2023/03/13 08:31:15;;;;;;;9.65;4.32;;;23.50;30.30;;;;;;4971919;28;20050;-62
2023/03/13 08:33:44;;;;;;;6.47;3.97;;;23.50;30.30;;;;;;4976617;28;20050;-62
2023/03/13 08:36:26;;;;;;;7.55;3.67;;;23.50;30.40;;;;;;4975519;28;20058;-61
2023/03/13 08:38:57;;;;;;;6.03;3.40;;;23.50;30.40;;;;;;4976701;28;20101;-60
2023/03/13 08:41:28;;;;;;;7.32;3.50;;;23.60;30.50;;;;;;4978261;28;20116;-59
2023/03/13 08:43:56;;;;;;;8.70;3.60;;;23.60;30.50;;;;;;4973176;28;20061;-60
2023/03/13 08:46:24;;;;;;;6.78;3.83;;;23.60;30.40;;;;;;4977001;28;20043;-59
2023/03/13 08:48:52;;;;;;;5.68;3.50;;;23.60;30.30;;;;;;4979059;28;20879;-59
2023/03/13 08:51:23;;;;;;;6.00;3.47;;;23.70;30.40;;;;;;4978561;28;20416;-59
2023/03/13 08:53:51;;;;;;;3.85;2.92;;;23.70;30.30;;;;;;4972541;28;20061;-58
2023/03/13 08:56:20;;;;;;;4.82;2.67;;;23.70;30.20;;;;;;4970478;28;20054;-59
2023/03/13 08:58:52;;;;;;;5.60;3.20;;;23.80;30.20;;;;;;4978964;28;20104;-60
2023/03/13 09:01:21;;;;;;;3.63;2.90;;;23.80;30.20;;;;;;4977867;28;20047;-60
2023/03/13 09:03:49;;;;;;;3.55;2.50;;;23.80;30.10;;;;;;4956877;28;20089;-59
2023/03/13 09:06:16;;;;;;;3.92;3.10;;;23.80;30.10;;;;;;4973100;28;20056;-59
2023/03/13 09:08:43;;;;;;;3.90;2.80;;;23.90;30.10;;;;;;4959225;28;20056;-58
2023/03/13 09:11:14;;;;;;;3.88;3.15;;;23.90;30.00;;;;;;4976860;28;20046;-58
2023/03/13 09:13:44;;;;;;;5.43;3.05;;;23.90;30.00;;;;;;4972162;28;20058;-59
2023/03/13 09:16:20;;;;;;;3.53;2.75;;;23.90;30.00;;;;;;4970800;28;20054;-59
2023/03/13 09:18:51;;;;;;;3.70;2.70;;;23.90;29.80;;;;;;4974429;28;20089;-58
2023/03/13 09:21:21;;;;;;;3.50;2.35;;;24.00;29.70;;;;;;4974657;28;20149;-59
2023/03/13 09:23:49;;;;;;;3.28;2.50;;;24.00;29.70;;;;;;4966651;28;20117;-59
2023/03/13 09:26:18;;;;;;;2.58;2.00;;;24.00;29.50;;;;;;4955579;28;20047;-59
2023/03/13 09:28:49;;;;;;;4.75;2.53;;;24.10;29.60;;;;;;4956263;28;20046;-59
2023/03/13 09:31:19;;;;;;;3.35;2.45;;;24.10;29.50;;;;;;4970806;28;20061;-60
2023/03/13 09:33:47;;;;;;;2.85;2.53;;;24.10;29.50;;;;;;4964808;28;20153;-59
2023/03/13 09:36:16;;;;;;;4.72;2.65;;;24.10;29.40;;;;;;4970454;28;20109;-59
2023/03/13 09:38:47;;;;;;;2.50;2.00;;;24.10;29.40;;;;;;4943513;28;20138;-62
2023/03/13 09:41:33;;;;;;;3.08;2.05;;;24.10;29.40;;;;;;4958028;28;20456;-59
2023/03/13 09:44:24;;;;;;;3.88;1.88;;;24.20;29.50;;;;;;4959588;28;20058;-60
2023/03/13 09:47:03;;;;;;;2.25;2.05;;;24.20;29.50;;;;;;4964622;28;20054;-58
2023/03/13 09:49:43;;;;;;;2.58;1.88;;;24.20;29.50;;;;;;4977442;28;20065;-58
2023/03/13 09:52:21;;;;;;;2.10;1.75;;;24.30;29.60;;;;;;4976269;28;20050;-57
2023/03/13 09:55:03;;;;;;;2.65;1.67;;;24.30;29.60;;;;;;4977292;28;20688;-58
2023/03/13 09:57:35;;;;;;;3.03;2.00;;;24.30;29.50;;;;;;4963065;28;20051;-60
2023/03/13 10:00:18;;;;;;;2.22;1.67;;;24.40;29.40;;;;;;4963978;28;20424;-59
2023/03/13 10:03:11;;;;;;;4.43;1.80;;;24.40;29.20;;;;;;4956180;28;20141;-59
2023/03/13 10:05:52;;;;;;;3.00;1.65;;;24.50;29.20;;;;;;4973635;28;20138;-62
2023/03/13 10:08:23;;;;;;;2.20;1.48;;;24.50;29.30;;;;;;4972909;28;20046;-60
2023/03/13 10:11:07;;;;;;;3.17;1.40;;;24.50;29.40;;;;;;4958561;28;20141;-62
2023/03/13 10:14:02;;;;;;;2.15;1.60;;;24.50;29.40;;;;;;4971960;28;20047;-61
2023/03/13 10:16:46;;;;;;;2.58;1.90;;;24.50;29.30;;;;;;4958884;28;20046;-58
2023/03/13 10:19:19;;;;;;;2.13;1.50;;;24.50;29.30;;;;;;4978249;28;20576;-59
2023/03/13 10:21:52;;;;;;;2.45;1.80;;;24.60;29.10;;;;;;4969639;28;20050;-59
2023/03/13 10:24:36;;;;;;;3.38;1.65;;;24.60;29.10;;;;;;4975510;28;20061;-59
2023/03/13 10:27:04;;;;;;;2.00;1.40;;;24.60;28.90;;;;;;4958052;28;20054;-60
2023/03/13 10:29:31;;;;;;;1.92;1.75;;;24.70;28.80;;;;;;4958122;28;20053;-59
2023/03/13 10:32:04;;;;;;;5.05;1.55;;;24.70;28.80;;;;;;4973725;28;20046;-58
2023/03/13 10:34:54;;;;;;;5.25;1.67;;;24.70;28.60;;;;;;4957407;28;20070;-58
2023/03/13 10:37:27;;;;;;;1.17;1.08;;;24.70;28.60;;;;;;4955502;28;20350;-60
2023/03/13 10:40:21;;;;;;;2.38;1.58;;;24.70;28.60;;;;;;4961851;28;20055;-60
2023/03/13 10:43:13;;;;;;;1.75;1.05;;;24.70;28.60;;;;;;4968169;28;20054;-60
2023/03/13 10:45:40;;;;;;;1.52;1.42;;;24.80;28.60;;;;;;4968440;28;20407;-58
2023/03/13 10:48:25;;;;;;;2.30;1.65;;;24.80;28.60;;;;;;4970647;28;20046;-58
2023/03/13 10:50:56;;;;;;;2.08;1.70;;;24.80;28.50;;;;;;4954356;28;20046;-58
2023/03/13 10:53:33;;;;;;;1.35;1.25;;;24.80;28.50;;;;;;4972141;28;20134;-59
2023/03/13 10:56:11;;;;;;;1.45;1.30;;;24.80;28.50;;;;;;4973691;28;20496;-60
2023/03/13 10:58:48;;;;;;;1.73;1.50;;;24.80;28.50;;;;;;4943744;28;20054;-60
2023/03/13 11:01:22;;;;;;;1.92;1.48;;;24.80;28.60;;;;;;4976911;28;20061;-61
2023/03/13 11:03:52;;;;;;;1.30;1.20;;;24.90;28.60;;;;;;4964145;28;20046;-62
2023/03/13 11:06:29;;;;;;;1.50;1.30;;;24.90;28.50;;;;;;4966547;28;20402;-61
2023/03/13 11:09:16;;;;;;;2.45;1.40;;;24.90;28.50;;;;;;4964401;28;20097;-60
2023/03/13 11:11:48;;;;;;;1.17;1.08;;;24.90;28.50;;;;;;4981428;28;20255;-60
2023/03/13 11:14:19;;;;;;;1.65;1.40;;;24.90;28.80;;;;;;4979192;28;20416;-60
2023/03/13 11:17:00;;;;;;;1.55;1.45;;;24.90;28.50;;;;;;4978374;28;20133;-59
2023/03/13 11:19:42;;;;;;;1.55;1.17;;;24.90;28.70;;;;;;4979878;28;20054;-60
2023/03/13 11:22:36;;;;;;;2.20;1.10;;;24.80;28.60;;;;;;4978748;28;20525;-60
2023/03/13 11:25:19;;;;;;;1.48;1.30;;;24.80;28.80;;;;;;4977019;28;20051;-60
2023/03/13 11:28:17;;;;;;;1.33;1.23;;;24.80;28.80;;;;;;4977738;28;20133;-60
2023/03/13 11:31:05;;;;;;;1.75;1.45;;;24.80;28.80;;;;;;4965375;28;20452;-60
2023/03/13 11:33:59;;;;;;;1.00;1.00;;;24.70;28.80;;;;;;4958113;28;20121;-55
2023/03/13 11:36:50;;;;;;;1.33;1.23;;;24.70;28.80;;;;;;4972264;28;20054;-55
2023/03/13 11:39:52;;;;;;;2.47;1.42;;;24.70;28.80;;;;;;4969329;28;20146;-55
2023/03/13 11:42:55;;;;;;;1.42;1.00;;;24.70;28.80;;;;;;4973745;28;20085;-58
2023/03/13 11:46:01;;;;;;;2.10;1.27;;;24.70;28.90;;;;;;4962933;28;20050;-57
2023/03/13 11:49:01;;;;;;;1.33;1.20;;;24.70;28.70;;;;;;4973145;28;20042;-57
2023/03/13 11:52:00;;;;;;;0.95;0.95;;;24.70;28.50;;;;;;4973486;28;20050;-60
2023/03/13 11:55:07;;;;;;;1.98;1.10;;;24.70;28.80;;;;;;4954982;28;20058;-59
2023/03/13 11:57:43;;;;;;;1.08;0.95;;;24.80;28.80;;;;;;4962828;28;20053;-59
2023/03/13 12:00:27;;;;;;;1.42;1.08;;;24.80;28.80;;;;;;4976151;28;20140;-59
2023/03/13 12:03:04;;;;;;;1.30;0.82;;;24.90;28.70;;;;;;4975469;28;20042;-59
2023/03/13 12:05:45;;;;;;;4.43;1.60;;;24.90;28.60;;;;;;4955431;28;20070;-57
2023/03/13 12:08:19;;;;;;;2.92;0.98;;;24.90;28.50;;;;;;4978547;28;20061;-59
2023/03/13 12:11:03;;;;;;;1.58;1.20;;;24.90;28.50;;;;;;4973989;28;20085;-55
2023/03/13 12:13:40;;;;;;;2.10;1.10;;;24.90;28.50;;;;;;4973293;28;20109;-58
2023/03/13 12:16:43;;;;;;;1.85;1.27;;;25.00;28.40;;;;;;4959885;28;20581;-58
2023/03/13 12:19:16;;;;;;;1.70;1.23;;;25.00;28.70;;;;;;4964389;28;20085;-59
2023/03/13 12:21:51;;;;;;;1.23;0.98;;;25.10;29.00;;;;;;4966700;28;20056;-58
2023/03/13 12:24:27;;;;;;;1.10;1.00;;;25.10;29.00;;;;;;4962538;28;20189;-59
2023/03/13 12:27:16;;;;;;;1.48;0.98;;;25.10;29.20;;;;;;4973691;28;20046;-59
2023/03/13 12:30:13;;;;;;;1.17;1.07;;;25.10;29.20;;;;;;4972517;28;20054;-60
2023/03/13 12:33:11;;;;;;;1.40;1.08;;;25.10;29.30;;;;;;4960946;28;20500;-59
2023/03/13 12:35:43;;;;;;;1.10;1.00;;;25.20;29.00;;;;;;4971583;28;20079;-60
2023/03/13 12:38:29;;;;;;;1.83;1.05;;;25.20;28.90;;;;;;4964465;28;20042;-59
2023/03/13 12:41:19;;;;;;;2.08;0.95;;;25.20;28.80;;;;;;4975248;28;20141;-60
2023/03/13 12:43:50;;;;;;;1.75;1.08;;;25.30;29.00;;;;;;4972166;28;20050;-60
2023/03/13 12:47:06;;;;;;;1.50;1.10;;;25.30;28.80;;;;;;4960629;28;20381;-62
2023/03/13 12:50:12;;;;;;;1.17;1.08;;;25.30;28.80;;;;;;4979237;28;20411;-61
2023/03/13 12:53:10;;;;;;;1.15;1.02;;;25.30;28.70;;;;;;4966329;28;20085;-60
2023/03/13 12:55:57;;;;;;;1.83;0.95;;;25.30;28.60;;;;;;4973090;28;20477;-60
2023/03/13 12:58:54;;;;;;;1.23;1.00;;;25.30;28.50;;;;;;4974355;28;20482;-61
2023/03/13 13:01:46;;;;;;;0.85;0.82;;;25.40;28.40;;;;;;4975918;28;20129;-59
2023/03/13 13:04:18;;;;;;;1.15;0.90;;;25.30;28.40;;;;;;4976751;28;20054;-60
2023/03/13 13:07:01;;;;;;;1.70;1.02;;;25.30;28.40;;;;;;4974238;28;20079;-61
2023/03/13 13:09:38;;;;;;;1.42;1.05;;;25.40;28.40;;;;;;4975665;28;20132;-61
2023/03/13 13:12:24;;;;;;;1.63;0.75;;;25.40;28.40;;;;;;4979497;28;20085;-61
2023/03/13 13:15:00;;;;;;;2.00;1.15;;;25.40;28.40;;;;;;4983100;28;20081;-62
2023/03/13 13:17:51;;;;;;;1.13;1.05;;;25.40;28.40;;;;;;4962817;28;20134;-62
2023/03/13 13:20:40;;;;;;;0.98;0.80;;;25.40;28.40;;;;;;4968807;28;20492;-62